Saginaw, Michigan
Current Conditions -  °F | °C
As of 8:35 AM on Sunday 23 Nov 2014 (Local Time) from KHYX Reporting Station
Overcast Overcast  
Wind Chill: 44°   Ceiling: 4400
Heat Index: 48°   Visibility: 10mi
Dew Point: 48°   Wind: 10mph
Humidity: 100%   Direction: 190°S
Pressure: 29.85"   Gusts: NA
Location:  43.42°N, 83.95°W
Report Text: KHYX 231335Z AUTO 19009KT 10SM SCT029 SCT039 OVC044 09/09 A2985 RMK AO2
Loading
Personal Weather Stations






























Interactive Weather Map New forecast layout! Learn more

10-Day Weather Forecast

Advertisements
Track Severe Weather on mobile